createdAt,value
2019-03-27T00:00:28.948Z,993.13
2019-03-27T00:01:29.041Z,993.18
2019-03-27T00:02:28.918Z,993.15
2019-03-27T00:03:29.998Z,993.14
2019-03-27T00:04:28.889Z,993.16
2019-03-27T00:05:28.960Z,993.21
2019-03-27T00:06:28.880Z,993.16
2019-03-27T00:07:28.860Z,993.16
2019-03-27T00:08:28.852Z,993.12
2019-03-27T00:09:29.911Z,993.21
2019-03-27T00:10:28.846Z,993.23
2019-03-27T00:11:35.572Z,993.18
2019-03-27T00:12:28.803Z,993.21
2019-03-27T00:13:28.844Z,993.19
2019-03-27T00:14:28.784Z,993.23
2019-03-27T00:15:28.844Z,993.20
2019-03-27T00:16:28.754Z,993.18
2019-03-27T00:17:28.825Z,993.17
2019-03-27T00:18:28.736Z,993.14
2019-03-27T00:19:29.785Z,993.22
2019-03-27T00:20:28.726Z,993.21
2019-03-27T00:21:28.796Z,993.23
2019-03-27T00:22:28.697Z,993.21
2019-03-27T00:23:28.688Z,993.24
2019-03-27T00:24:28.698Z,993.20
2019-03-27T00:25:28.679Z,993.19
2019-03-27T00:26:28.738Z,993.19
2019-03-27T00:27:28.639Z,993.20
2019-03-27T00:28:28.633Z,993.17
2019-03-27T00:29:28.652Z,993.16
2019-03-27T00:30:28.610Z,993.18
2019-03-27T00:31:28.671Z,993.14
2019-03-27T00:32:28.571Z,993.14
2019-03-27T00:33:28.561Z,993.18
2019-03-27T00:34:28.556Z,993.19
2019-03-27T00:35:28.593Z,993.22
2019-03-27T00:36:28.533Z,993.18
2019-03-27T00:37:28.584Z,993.11
2019-03-27T00:38:28.554Z,993.19
2019-03-27T00:39:28.504Z,993.13
2019-03-27T00:40:28.536Z,993.10
2019-03-27T00:41:28.475Z,993.13
2019-03-27T00:42:29.546Z,993.13
2019-03-27T00:43:28.466Z,993.19
2019-03-27T00:44:29.489Z,993.21
2019-03-27T00:45:28.457Z,993.21
2019-03-27T00:46:28.493Z,993.21
2019-03-27T00:47:28.408Z,993.22
2019-03-27T00:48:28.431Z,993.23
2019-03-27T00:49:28.389Z,993.23
2019-03-27T00:50:28.461Z,993.27
2019-03-27T00:51:28.379Z,993.24
2019-03-27T00:52:28.473Z,993.27
2019-03-27T00:53:28.340Z,993.24
2019-03-27T00:54:28.332Z,993.22
2019-03-27T00:55:28.411Z,993.26
2019-03-27T00:56:28.322Z,993.23
2019-03-27T00:57:28.344Z,993.26
2019-03-27T00:58:28.292Z,993.26
2019-03-27T00:59:28.283Z,993.29
2019-03-27T01:00:28.274Z,993.26
2019-03-27T01:01:28.364Z,993.25
2019-03-27T01:02:28.245Z,993.24
2019-03-27T01:03:28.255Z,993.23
2019-03-27T01:04:28.328Z,993.28
2019-03-27T01:05:28.207Z,993.26
2019-03-27T01:06:28.297Z,993.26
2019-03-27T01:07:28.187Z,993.28
2019-03-27T01:08:28.287Z,993.26
2019-03-27T01:09:28.157Z,993.30
2019-03-27T01:10:29.247Z,993.26
2019-03-27T01:11:28.149Z,993.24
2019-03-27T01:12:28.159Z,993.27
2019-03-27T01:13:28.121Z,993.29
2019-03-27T01:14:28.199Z,993.28
2019-03-27T01:15:39.103Z,993.29
2019-03-27T01:16:29.110Z,993.31
2019-03-27T01:17:28.101Z,993.31
2019-03-27T01:18:28.074Z,993.35
2019-03-27T01:19:30.091Z,993.35
2019-03-27T01:20:28.053Z,993.36
2019-03-27T01:21:30.073Z,993.37
2019-03-27T01:22:28.023Z,993.40
2019-03-27T01:23:28.107Z,993.40
2019-03-27T01:24:27.993Z,993.35
2019-03-27T01:25:27.984Z,993.32
2019-03-27T01:26:27.984Z,993.37
2019-03-27T01:27:27.975Z,993.38
2019-03-27T01:28:27.945Z,993.32
2019-03-27T01:29:28.016Z,993.34
2019-03-27T01:30:27.928Z,993.32
2019-03-27T01:31:28.044Z,993.34
2019-03-27T01:32:27.923Z,993.32
2019-03-27T01:33:27.997Z,993.30
2019-03-27T01:34:27.876Z,993.34
2019-03-27T01:35:28.948Z,993.38
2019-03-27T01:36:27.879Z,993.36
2019-03-27T01:37:28.890Z,993.35
2019-03-27T01:38:28.983Z,993.35
2019-03-27T01:39:29.850Z,993.33
2019-03-27T01:40:27.821Z,993.31
2019-03-27T01:41:27.821Z,993.33
2019-03-27T01:42:27.792Z,993.38
2019-03-27T01:43:27.872Z,993.36
2019-03-27T01:44:27.772Z,993.30
2019-03-27T01:45:27.802Z,993.28
2019-03-27T01:46:27.764Z,993.32
2019-03-27T01:47:29.793Z,993.28
2019-03-27T01:48:27.724Z,993.30
2019-03-27T01:49:27.784Z,993.26
2019-03-27T01:50:27.705Z,993.25
2019-03-27T01:51:27.756Z,993.26
2019-03-27T01:52:27.688Z,993.28
2019-03-27T01:53:27.756Z,993.33
2019-03-27T01:54:27.666Z,993.33
2019-03-27T01:55:28.718Z,993.34
2019-03-27T01:56:27.658Z,993.30
2019-03-27T01:57:27.639Z,993.27
2019-03-27T01:58:27.608Z,993.29
2019-03-27T01:59:28.689Z,993.29
2019-03-27T02:00:27.592Z,993.28
2019-03-27T02:01:27.640Z,993.29
2019-03-27T02:02:27.570Z,993.26
2019-03-27T02:03:27.630Z,993.31
2019-03-27T02:04:27.541Z,993.28
2019-03-27T02:05:27.571Z,993.28
2019-03-27T02:06:27.543Z,993.35
2019-03-27T02:07:27.612Z,993.40
2019-03-27T02:08:27.501Z,993.38
2019-03-27T02:09:27.544Z,993.41
2019-03-27T02:10:27.525Z,993.37
2019-03-27T02:11:28.555Z,993.37
2019-03-27T02:12:27.465Z,993.40
2019-03-27T02:13:27.455Z,993.40
2019-03-27T02:14:27.446Z,993.37
2019-03-27T02:15:27.445Z,993.37
2019-03-27T02:16:27.428Z,993.35
2019-03-27T02:17:27.486Z,993.38
2019-03-27T02:18:27.457Z,993.37
2019-03-27T02:19:27.377Z,993.38
2019-03-27T02:20:28.418Z,993.37
2019-03-27T02:21:27.379Z,993.40
2019-03-27T02:22:29.369Z,993.40
2019-03-27T02:23:27.329Z,993.36
2019-03-27T02:24:28.390Z,993.41
2019-03-27T02:25:27.320Z,993.44
2019-03-27T02:26:27.341Z,993.44
2019-03-27T02:27:27.302Z,993.45
2019-03-27T02:28:27.342Z,993.40
2019-03-27T02:29:27.272Z,993.39
2019-03-27T02:30:27.283Z,993.42
2019-03-27T02:31:27.262Z,993.44
2019-03-27T02:32:28.334Z,993.41
2019-03-27T02:33:27.224Z,993.41
2019-03-27T02:34:27.216Z,993.49
2019-03-27T02:35:27.305Z,993.44
2019-03-27T02:36:27.206Z,993.44
2019-03-27T02:37:27.247Z,993.45
2019-03-27T02:38:27.168Z,993.47
2019-03-27T02:39:27.157Z,993.43
2019-03-27T02:40:27.147Z,993.46
2019-03-27T02:41:27.164Z,993.46
2019-03-27T02:42:27.117Z,993.44
2019-03-27T02:43:27.159Z,993.45
2019-03-27T02:44:27.129Z,993.45
2019-03-27T02:45:27.098Z,993.49
2019-03-27T02:46:27.209Z,993.50
2019-03-27T02:47:27.077Z,993.51
2019-03-27T02:48:29.151Z,993.50
2019-03-27T02:49:27.058Z,993.51
2019-03-27T02:50:27.142Z,993.54
2019-03-27T02:51:27.027Z,993.55
2019-03-27T02:52:27.112Z,993.55
2019-03-27T02:53:26.992Z,993.52
2019-03-27T02:54:27.003Z,993.48
2019-03-27T02:55:26.973Z,993.55
2019-03-27T02:56:28.063Z,993.50
2019-03-27T02:57:26.964Z,993.53
2019-03-27T02:58:27.995Z,993.54
2019-03-27T02:59:26.925Z,993.56
2019-03-27T03:00:26.926Z,993.59
2019-03-27T03:01:26.915Z,993.50
2019-03-27T03:02:26.997Z,993.55
2019-03-27T03:03:26.880Z,993.51
2019-03-27T03:04:27.908Z,993.54
2019-03-27T03:05:27.977Z,993.56
2019-03-27T03:06:26.860Z,993.47
2019-03-27T03:07:26.942Z,993.51
2019-03-27T03:08:26.842Z,993.56
2019-03-27T03:09:26.921Z,993.50
2019-03-27T03:10:26.810Z,993.56
2019-03-27T03:11:27.881Z,993.52
2019-03-27T03:12:26.801Z,993.56
2019-03-27T03:13:26.791Z,993.56
2019-03-27T03:14:26.830Z,993.56
2019-03-27T03:15:26.833Z,993.54
2019-03-27T03:16:41.309Z,993.56
2019-03-27T03:17:27.744Z,993.54
2019-03-27T03:18:26.735Z,993.54
2019-03-27T03:19:26.713Z,993.55
2019-03-27T03:20:26.774Z,993.55
2019-03-27T03:21:26.757Z,993.58
2019-03-27T03:22:26.695Z,993.45
2019-03-27T03:23:26.681Z,993.52
2019-03-27T03:24:26.664Z,993.48
2019-03-27T03:25:26.707Z,993.48
2019-03-27T03:26:26.687Z,993.43
2019-03-27T03:27:26.627Z,993.45
2019-03-27T03:28:27.647Z,993.52
2019-03-27T03:29:26.598Z,993.53
2019-03-27T03:30:26.649Z,993.46
2019-03-27T03:31:26.570Z,993.44
2019-03-27T03:32:26.635Z,993.45
2019-03-27T03:33:26.707Z,993.54
2019-03-27T03:34:26.631Z,993.54
2019-03-27T03:35:26.569Z,993.56
2019-03-27T03:36:26.561Z,993.53
2019-03-27T03:37:26.521Z,993.58
2019-03-27T03:38:26.601Z,993.57
2019-03-27T03:39:26.500Z,993.63
2019-03-27T03:40:27.555Z,993.58
2019-03-27T03:41:26.474Z,993.58
2019-03-27T03:42:26.474Z,993.55
2019-03-27T03:43:34.117Z,993.60
2019-03-27T03:44:26.425Z,993.63
2019-03-27T03:45:28.516Z,993.55
2019-03-27T03:46:26.405Z,993.61
2019-03-27T03:47:26.406Z,993.63
2019-03-27T03:48:26.387Z,993.61
2019-03-27T03:49:26.449Z,993.59
2019-03-27T03:50:26.357Z,993.64
2019-03-27T03:51:27.399Z,993.69
2019-03-27T03:52:26.348Z,993.72
2019-03-27T03:53:26.329Z,993.69
2019-03-27T03:54:26.400Z,993.73
2019-03-27T03:55:26.313Z,993.70
2019-03-27T03:56:26.319Z,993.73
2019-03-27T03:57:26.419Z,993.70
2019-03-27T03:58:26.287Z,993.75
2019-03-27T03:59:27.350Z,993.74
2019-03-27T04:00:26.251Z,993.75
2019-03-27T04:01:26.263Z,993.74
2019-03-27T04:02:26.243Z,993.74
2019-03-27T04:03:26.213Z,993.74
2019-03-27T04:04:26.203Z,993.74
2019-03-27T04:05:26.228Z,993.70
2019-03-27T04:06:26.175Z,993.72
2019-03-27T04:07:26.206Z,993.76
2019-03-27T04:08:26.264Z,993.79
2019-03-27T04:09:26.218Z,993.80
2019-03-27T04:10:26.137Z,993.78
2019-03-27T04:11:26.236Z,993.75
2019-03-27T04:12:26.136Z,993.77
2019-03-27T04:13:26.106Z,993.81
2019-03-27T04:14:26.098Z,993.82
2019-03-27T04:15:26.109Z,993.82
2019-03-27T04:16:26.077Z,993.80
2019-03-27T04:17:26.119Z,993.82
2019-03-27T04:18:26.058Z,993.88
2019-03-27T04:19:26.029Z,993.87
2019-03-27T04:20:26.049Z,993.90
2019-03-27T04:21:27.085Z,993.91
2019-03-27T04:22:26.132Z,993.90
2019-03-27T04:23:25.992Z,993.91
2019-03-27T04:24:25.982Z,993.88
2019-03-27T04:25:25.992Z,993.93
2019-03-27T04:26:25.952Z,993.89
2019-03-27T04:27:26.064Z,993.88
2019-03-27T04:28:25.932Z,993.91
2019-03-27T04:29:25.934Z,993.88
2019-03-27T04:30:26.057Z,993.92
2019-03-27T04:31:25.904Z,993.93
2019-03-27T04:32:26.030Z,993.96
2019-03-27T04:33:25.885Z,993.99
2019-03-27T04:34:25.876Z,993.98
2019-03-27T04:35:25.866Z,994.02
2019-03-27T04:36:27.887Z,993.98
2019-03-27T04:37:25.858Z,994.02
2019-03-27T04:38:25.889Z,994.00
2019-03-27T04:39:25.807Z,994.08
2019-03-27T04:40:27.869Z,994.07
2019-03-27T04:41:25.790Z,994.08
2019-03-27T04:42:27.835Z,994.06
2019-03-27T04:43:25.761Z,994.06
2019-03-27T04:44:26.804Z,994.04
2019-03-27T04:45:25.740Z,994.05
2019-03-27T04:46:25.821Z,994.02
2019-03-27T04:47:31.963Z,994.06
2019-03-27T04:48:27.902Z,994.03
2019-03-27T04:49:25.713Z,994.06
2019-03-27T04:50:25.681Z,994.04
2019-03-27T04:51:25.762Z,994.07
2019-03-27T04:52:25.691Z,994.07
2019-03-27T04:53:25.694Z,994.10
2019-03-27T04:54:27.138Z,994.10
2019-03-27T04:55:25.644Z,994.08
2019-03-27T04:56:25.625Z,994.10
2019-03-27T04:57:25.654Z,994.10
2019-03-27T04:58:25.610Z,994.04
2019-03-27T04:59:25.696Z,994.12
2019-03-27T05:00:26.687Z,994.10
2019-03-27T05:01:25.566Z,994.11
2019-03-27T05:02:26.628Z,994.05
2019-03-27T05:03:25.557Z,994.07
2019-03-27T05:04:26.564Z,994.08
2019-03-27T05:05:25.518Z,994.14
2019-03-27T05:06:25.578Z,994.10
2019-03-27T05:07:25.512Z,994.16
2019-03-27T05:08:25.559Z,994.22
2019-03-27T05:09:25.479Z,994.21
2019-03-27T05:10:25.550Z,994.15
2019-03-27T05:11:25.461Z,994.15
2019-03-27T05:12:25.492Z,994.17
2019-03-27T05:13:25.451Z,994.15
2019-03-27T05:14:25.511Z,994.13
2019-03-27T05:15:25.413Z,994.13
2019-03-27T05:16:25.392Z,994.11
2019-03-27T05:17:25.383Z,994.11
2019-03-27T05:18:25.434Z,994.13
2019-03-27T05:19:25.374Z,994.15
2019-03-27T05:20:28.608Z,994.10
2019-03-27T05:21:25.398Z,994.15
2019-03-27T05:22:25.325Z,994.19
2019-03-27T05:23:25.375Z,994.17
2019-03-27T05:24:25.317Z,994.16
2019-03-27T05:25:25.378Z,994.16
2019-03-27T05:26:25.297Z,994.21
2019-03-27T05:27:26.328Z,994.14
2019-03-27T05:28:25.290Z,994.18
2019-03-27T05:29:26.368Z,994.24
2019-03-27T05:30:25.238Z,994.19
2019-03-27T05:31:25.269Z,994.20
2019-03-27T05:32:25.219Z,994.19
2019-03-27T05:33:25.256Z,994.24
2019-03-27T05:34:25.192Z,994.29
2019-03-27T05:35:25.242Z,994.31
2019-03-27T05:36:25.173Z,994.27
2019-03-27T05:37:25.163Z,994.29
2019-03-27T05:38:25.163Z,994.31
2019-03-27T05:39:25.222Z,994.27
2019-03-27T05:40:25.123Z,994.31
2019-03-27T05:41:25.154Z,994.34
2019-03-27T05:42:25.114Z,994.29
2019-03-27T05:43:25.114Z,994.34
2019-03-27T05:44:25.155Z,994.33
2019-03-27T05:45:25.075Z,994.36
2019-03-27T05:46:26.552Z,994.42
2019-03-27T05:47:25.046Z,994.41
2019-03-27T05:48:25.059Z,994.45
2019-03-27T05:49:25.106Z,994.40
2019-03-27T05:50:25.017Z,994.45
2019-03-27T05:51:25.027Z,994.46
2019-03-27T05:52:24.987Z,994.43
2019-03-27T05:53:24.998Z,994.47
2019-03-27T05:54:26.058Z,994.43
2019-03-27T05:55:26.553Z,994.45
2019-03-27T05:56:24.969Z,994.46
2019-03-27T05:57:24.940Z,994.44
2019-03-27T05:58:24.942Z,994.48
2019-03-27T05:59:24.921Z,994.48
2019-03-27T06:00:26.504Z,994.47
2019-03-27T06:01:24.906Z,994.51
2019-03-27T06:02:33.582Z,994.50
2019-03-27T06:03:24.892Z,994.53
2019-03-27T06:04:24.865Z,994.52
2019-03-27T06:05:31.544Z,994.55
2019-03-27T06:06:24.833Z,994.57
2019-03-27T06:07:24.925Z,994.58
2019-03-27T06:08:24.824Z,994.56
2019-03-27T06:09:24.805Z,994.60
2019-03-27T06:10:24.785Z,994.57
2019-03-27T06:11:25.807Z,994.63
2019-03-27T06:12:24.766Z,994.60
2019-03-27T06:13:25.786Z,994.65
2019-03-27T06:14:24.747Z,994.64
2019-03-27T06:15:24.771Z,994.68
2019-03-27T06:16:24.728Z,994.70
2019-03-27T06:17:24.802Z,994.66
2019-03-27T06:18:24.729Z,994.68
2019-03-27T06:19:24.739Z,994.76
2019-03-27T06:20:24.690Z,994.71
2019-03-27T06:21:24.772Z,994.74
2019-03-27T06:22:24.670Z,994.74
2019-03-27T06:23:24.761Z,994.71
2019-03-27T06:24:24.631Z,994.75
2019-03-27T06:25:24.622Z,994.74
2019-03-27T06:26:25.642Z,994.67
2019-03-27T06:27:24.609Z,994.67
2019-03-27T06:28:24.687Z,994.64
2019-03-27T06:29:24.576Z,994.64
2019-03-27T06:30:24.563Z,994.67
2019-03-27T06:31:25.575Z,994.66
2019-03-27T06:32:24.555Z,994.70
2019-03-27T06:33:24.629Z,994.71
2019-03-27T06:34:24.526Z,994.75
2019-03-27T06:35:24.506Z,994.74
2019-03-27T06:36:24.592Z,994.70
2019-03-27T06:37:24.497Z,994.66
2019-03-27T06:38:29.594Z,994.70
2019-03-27T06:39:24.479Z,994.68
2019-03-27T06:40:25.488Z,994.67
2019-03-27T06:41:24.448Z,994.68
2019-03-27T06:42:24.499Z,994.66
2019-03-27T06:43:24.449Z,994.64
2019-03-27T06:44:26.482Z,994.68
2019-03-27T06:45:24.402Z,994.66
2019-03-27T06:46:24.418Z,994.69
2019-03-27T06:47:25.464Z,994.70
2019-03-27T06:48:26.526Z,994.67
2019-03-27T06:49:25.402Z,994.65
2019-03-27T06:50:24.342Z,994.66
2019-03-27T06:51:25.319Z,994.64
2019-03-27T06:52:24.341Z,994.64
2019-03-27T06:53:24.403Z,994.66
2019-03-27T06:54:24.294Z,994.70
2019-03-27T06:55:24.456Z,994.67
2019-03-27T06:56:24.454Z,994.72
2019-03-27T06:57:24.290Z,994.74
2019-03-27T06:58:24.336Z,994.77
2019-03-27T06:59:24.247Z,994.79
2019-03-27T07:00:24.317Z,994.76
2019-03-27T07:01:24.260Z,994.74
2019-03-27T07:02:24.268Z,994.82
2019-03-27T07:03:24.193Z,994.79
2019-03-27T07:04:24.239Z,994.77
2019-03-27T07:05:24.179Z,994.77
2019-03-27T07:06:24.230Z,994.75
2019-03-27T07:07:24.271Z,994.77
2019-03-27T07:08:24.164Z,994.72
2019-03-27T07:09:24.150Z,994.75
2019-03-27T07:10:24.201Z,994.77
2019-03-27T07:11:24.112Z,994.80
2019-03-27T07:12:24.100Z,994.79
2019-03-27T07:13:24.113Z,994.79
2019-03-27T07:14:24.103Z,994.80
2019-03-27T07:15:24.153Z,994.84
2019-03-27T07:16:24.074Z,994.86
2019-03-27T07:17:24.064Z,994.91
2019-03-27T07:18:24.024Z,994.88
2019-03-27T07:19:24.056Z,994.91
2019-03-27T07:20:24.005Z,994.89
2019-03-27T07:21:24.046Z,994.86
2019-03-27T07:22:25.026Z,994.95
2019-03-27T07:23:23.977Z,994.97
2019-03-27T07:24:23.987Z,994.99
2019-03-27T07:25:23.948Z,994.99
2019-03-27T07:26:23.988Z,995.10
2019-03-27T07:27:23.929Z,995.11
2019-03-27T07:28:24.030Z,995.05
2019-03-27T07:29:23.931Z,995.07
2019-03-27T07:30:23.960Z,995.06
2019-03-27T07:31:23.891Z,995.11
2019-03-27T07:32:24.924Z,995.11
2019-03-27T07:33:23.964Z,995.13
2019-03-27T07:34:23.862Z,995.13
2019-03-27T07:35:24.924Z,995.15
2019-03-27T07:36:23.837Z,995.11
2019-03-27T07:37:23.834Z,995.16
2019-03-27T07:38:23.803Z,995.16
2019-03-27T07:39:23.914Z,995.18
2019-03-27T07:40:23.785Z,995.21
2019-03-27T07:41:24.836Z,995.25
2019-03-27T07:42:23.756Z,995.26
2019-03-27T07:43:23.786Z,995.25
2019-03-27T07:44:23.758Z,995.29
2019-03-27T07:45:23.767Z,995.27
2019-03-27T07:46:23.710Z,995.31
2019-03-27T07:47:23.819Z,995.28
2019-03-27T07:48:23.680Z,995.27
2019-03-27T07:49:23.809Z,995.32
2019-03-27T07:50:23.682Z,995.30
2019-03-27T07:51:23.682Z,995.31
2019-03-27T07:52:23.650Z,995.29
2019-03-27T07:53:23.721Z,995.26
2019-03-27T07:54:23.732Z,995.32
2019-03-27T07:55:23.612Z,995.30
2019-03-27T07:56:23.622Z,995.35
2019-03-27T07:57:23.592Z,995.34
2019-03-27T07:58:23.653Z,995.30
2019-03-27T07:59:23.666Z,995.34
2019-03-27T08:00:23.564Z,995.33
2019-03-27T08:01:23.574Z,995.27
2019-03-27T08:02:23.545Z,995.29
2019-03-27T08:03:23.606Z,995.29
2019-03-27T08:04:24.646Z,995.28
2019-03-27T08:05:23.540Z,995.29
2019-03-27T08:06:23.618Z,995.31
2019-03-27T08:07:27.078Z,995.25
2019-03-27T08:08:23.615Z,995.30
2019-03-27T08:09:23.469Z,995.30
2019-03-27T08:10:23.481Z,995.29
2019-03-27T08:11:23.551Z,995.30
2019-03-27T08:12:23.520Z,995.28
2019-03-27T08:13:23.410Z,995.33
2019-03-27T08:14:24.510Z,995.28
2019-03-27T08:15:23.391Z,995.25
2019-03-27T08:16:24.411Z,995.28
2019-03-27T08:17:23.372Z,995.23
2019-03-27T08:18:23.432Z,995.26
2019-03-27T08:19:23.353Z,995.21
2019-03-27T08:20:23.346Z,995.20
2019-03-27T08:21:23.334Z,995.27
2019-03-27T08:22:23.409Z,995.25
2019-03-27T08:23:23.306Z,995.21
2019-03-27T08:24:23.390Z,995.22
2019-03-27T08:25:24.326Z,995.27
2019-03-27T08:26:23.256Z,995.23
2019-03-27T08:27:23.337Z,995.28
2019-03-27T08:28:23.250Z,995.28
2019-03-27T08:29:23.317Z,995.23
2019-03-27T08:30:23.228Z,995.24
2019-03-27T08:31:23.208Z,995.18
2019-03-27T08:32:23.289Z,995.29
2019-03-27T08:33:23.180Z,995.27
2019-03-27T08:34:23.250Z,995.28
2019-03-27T08:35:23.181Z,995.31
2019-03-27T08:36:23.170Z,995.28
2019-03-27T08:37:23.151Z,995.29
2019-03-27T08:38:23.192Z,995.30
2019-03-27T08:39:23.133Z,995.33
2019-03-27T08:40:24.153Z,995.33
2019-03-27T08:41:23.104Z,995.37
2019-03-27T08:42:23.084Z,995.34
2019-03-27T08:43:25.561Z,995.34
2019-03-27T08:44:23.084Z,995.42
2019-03-27T08:45:24.089Z,995.44
2019-03-27T08:46:23.047Z,995.45
2019-03-27T08:47:23.056Z,995.39
2019-03-27T08:48:23.021Z,995.43
2019-03-27T08:49:24.097Z,995.39
2019-03-27T08:50:22.998Z,995.43
2019-03-27T08:51:23.075Z,995.34
2019-03-27T08:52:22.988Z,995.35
2019-03-27T08:53:23.009Z,995.38
2019-03-27T08:54:22.969Z,995.40
2019-03-27T08:55:23.039Z,995.33
2019-03-27T08:56:22.930Z,995.38
2019-03-27T08:57:25.020Z,995.40
2019-03-27T08:58:23.961Z,995.42
2019-03-27T08:59:22.912Z,995.32
2019-03-27T09:00:22.983Z,995.40
2019-03-27T09:01:22.862Z,995.36
2019-03-27T09:02:22.915Z,995.39
2019-03-27T09:03:22.858Z,995.35
2019-03-27T09:04:22.894Z,995.33
2019-03-27T09:05:22.835Z,995.35
2019-03-27T09:06:33.601Z,995.36
2019-03-27T09:07:23.815Z,995.40
2019-03-27T09:08:22.826Z,995.34
2019-03-27T09:09:22.896Z,995.32
2019-03-27T09:10:22.796Z,995.30
2019-03-27T09:11:22.837Z,995.31
2019-03-27T09:12:22.759Z,995.31
2019-03-27T09:13:22.759Z,995.30
2019-03-27T09:14:22.729Z,995.27
2019-03-27T09:15:22.740Z,995.31
2019-03-27T09:16:22.770Z,995.31
2019-03-27T09:17:22.701Z,995.31
2019-03-27T09:18:24.751Z,995.32
2019-03-27T09:19:34.875Z,995.34
2019-03-27T09:20:23.681Z,995.34
2019-03-27T09:21:22.703Z,995.33
2019-03-27T09:22:22.653Z,995.34
2019-03-27T09:23:22.645Z,995.32
2019-03-27T09:24:22.604Z,995.32
2019-03-27T09:25:22.735Z,995.38
2019-03-27T09:26:22.605Z,995.35
2019-03-27T09:27:22.625Z,995.32
2019-03-27T09:28:22.579Z,995.32
2019-03-27T09:29:22.646Z,995.35
2019-03-27T09:30:22.547Z,995.38
2019-03-27T09:31:22.537Z,995.37
2019-03-27T09:32:22.527Z,995.33
2019-03-27T09:33:22.628Z,995.36
2019-03-27T09:34:22.509Z,995.37
2019-03-27T09:35:22.599Z,995.43
2019-03-27T09:36:22.479Z,995.37
2019-03-27T09:37:22.480Z,995.40
2019-03-27T09:38:22.570Z,995.35
2019-03-27T09:39:22.462Z,995.36
2019-03-27T09:40:22.551Z,995.39
2019-03-27T09:41:22.439Z,995.34
2019-03-27T09:42:22.413Z,995.35
2019-03-27T09:43:22.415Z,995.36
2019-03-27T09:44:22.475Z,995.34
2019-03-27T09:45:22.384Z,995.40
2019-03-27T09:46:24.455Z,995.34
2019-03-27T09:47:22.356Z,995.34
2019-03-27T09:48:22.325Z,995.36
2019-03-27T09:49:23.446Z,995.38
2019-03-27T09:50:22.347Z,995.42
2019-03-27T09:51:22.347Z,995.44
2019-03-27T09:52:22.297Z,995.43
2019-03-27T09:53:22.298Z,995.43
2019-03-27T09:54:22.279Z,995.46
2019-03-27T09:55:23.399Z,995.46
2019-03-27T09:56:22.260Z,995.49
2019-03-27T09:57:22.361Z,995.47
2019-03-27T09:58:22.240Z,995.42
2019-03-27T09:59:22.290Z,995.43
2019-03-27T10:00:22.241Z,995.39
2019-03-27T10:01:22.226Z,995.40
2019-03-27T10:02:22.192Z,995.39
2019-03-27T10:03:22.273Z,995.36
2019-03-27T10:04:22.169Z,995.40
2019-03-27T10:05:23.264Z,995.39
2019-03-27T10:06:22.144Z,995.35
2019-03-27T10:07:22.244Z,995.38
2019-03-27T10:08:22.122Z,995.38
2019-03-27T10:09:22.115Z,995.37
2019-03-27T10:10:22.123Z,995.37
2019-03-27T10:11:23.839Z,995.37
2019-03-27T10:12:22.087Z,995.36
2019-03-27T10:13:22.157Z,995.39
2019-03-27T10:14:22.069Z,995.35
2019-03-27T10:15:22.068Z,995.33
2019-03-27T10:16:22.048Z,995.32
2019-03-27T10:17:22.020Z,995.38
2019-03-27T10:18:22.090Z,995.38
2019-03-27T10:19:22.000Z,995.36
2019-03-27T10:20:22.007Z,995.33
2019-03-27T10:21:21.981Z,995.35
2019-03-27T10:22:22.062Z,995.37
2019-03-27T10:23:21.953Z,995.32
2019-03-27T10:24:22.000Z,995.35
2019-03-27T10:25:21.980Z,995.32
2019-03-27T10:26:21.924Z,995.35
2019-03-27T10:27:22.925Z,995.31
2019-03-27T10:28:21.905Z,995.35
2019-03-27T10:29:21.946Z,995.31
2019-03-27T10:30:21.896Z,995.31
2019-03-27T10:31:21.976Z,995.34
2019-03-27T10:32:21.856Z,995.36
2019-03-27T10:33:23.061Z,995.35
2019-03-27T10:34:21.853Z,995.36
2019-03-27T10:35:22.919Z,995.37
2019-03-27T10:36:21.809Z,995.36
2019-03-27T10:37:21.869Z,995.32
2019-03-27T10:38:22.880Z,995.37
2019-03-27T10:39:21.772Z,995.38
2019-03-27T10:40:22.875Z,995.37
2019-03-27T10:41:21.750Z,995.34
2019-03-27T10:42:21.832Z,995.34
2019-03-27T10:43:21.726Z,995.31
2019-03-27T10:44:21.763Z,995.34
2019-03-27T10:45:21.734Z,995.39
2019-03-27T10:46:22.717Z,995.41
2019-03-27T10:47:21.684Z,995.44
2019-03-27T10:48:21.675Z,995.40
2019-03-27T10:49:22.728Z,995.38
2019-03-27T10:50:22.509Z,995.40
2019-03-27T10:51:22.656Z,995.42
2019-03-27T10:52:21.627Z,995.45
2019-03-27T10:53:22.694Z,995.45
2019-03-27T10:54:21.608Z,995.42
2019-03-27T10:55:21.638Z,995.43
2019-03-27T10:56:21.589Z,995.46
2019-03-27T10:57:22.679Z,995.46
2019-03-27T10:58:21.570Z,995.44
2019-03-27T10:59:21.563Z,995.49
2019-03-27T11:00:21.597Z,995.51
2019-03-27T11:01:21.631Z,995.50
2019-03-27T11:02:21.532Z,995.52
2019-03-27T11:03:22.572Z,995.54
2019-03-27T11:04:21.493Z,995.54
2019-03-27T11:05:21.503Z,995.54
2019-03-27T11:06:21.564Z,995.50
2019-03-27T11:07:21.465Z,995.52
2019-03-27T11:08:21.495Z,995.55
2019-03-27T11:09:21.445Z,995.54
2019-03-27T11:10:21.469Z,995.59
2019-03-27T11:11:21.516Z,995.58
2019-03-27T11:12:21.418Z,995.54
2019-03-27T11:13:22.470Z,995.55
2019-03-27T11:14:21.398Z,995.61
2019-03-27T11:15:22.504Z,995.62
2019-03-27T11:16:21.410Z,995.63
2019-03-27T11:17:21.419Z,995.64
2019-03-27T11:18:21.359Z,995.63
2019-03-27T11:19:23.400Z,995.58
2019-03-27T11:20:30.899Z,995.60
2019-03-27T11:21:24.010Z,995.59
2019-03-27T11:22:21.352Z,995.60
2019-03-27T11:23:21.282Z,995.62
2019-03-27T11:24:21.283Z,995.63
2019-03-27T11:25:21.265Z,995.61
2019-03-27T11:26:21.387Z,995.62
2019-03-27T11:27:21.336Z,995.61
2019-03-27T11:28:21.268Z,995.66
2019-03-27T11:29:21.226Z,995.65
2019-03-27T11:30:21.219Z,995.70
2019-03-27T11:31:21.555Z,995.69
2019-03-27T11:32:21.287Z,995.67
2019-03-27T11:33:21.199Z,995.70
2019-03-27T11:34:21.168Z,995.71
2019-03-27T11:35:21.903Z,995.76
2019-03-27T11:36:21.159Z,995.74
2019-03-27T11:37:21.132Z,995.73
2019-03-27T11:38:21.105Z,995.72
2019-03-27T11:39:21.211Z,995.78
2019-03-27T11:40:21.111Z,995.73
2019-03-27T11:41:22.223Z,995.74
2019-03-27T11:42:21.075Z,995.81
2019-03-27T11:43:21.182Z,995.76
2019-03-27T11:44:21.063Z,995.77
2019-03-27T11:45:21.123Z,995.77
2019-03-27T11:46:21.054Z,995.74
2019-03-27T11:47:21.049Z,995.70
2019-03-27T11:48:27.577Z,995.72
2019-03-27T11:49:20.985Z,995.70
2019-03-27T11:50:22.087Z,995.72
2019-03-27T11:51:21.137Z,995.70
2019-03-27T11:52:20.988Z,995.67
2019-03-27T11:53:21.998Z,995.68
2019-03-27T11:54:21.013Z,995.70
2019-03-27T11:55:20.998Z,995.78
2019-03-27T11:56:20.929Z,995.77
2019-03-27T11:57:21.959Z,995.77
2019-03-27T11:58:20.914Z,995.74
2019-03-27T11:59:20.914Z,995.78
2019-03-27T12:00:21.034Z,995.78
2019-03-27T12:01:20.978Z,995.81
2019-03-27T12:02:20.873Z,995.75
2019-03-27T12:03:20.858Z,995.77
2019-03-27T12:04:20.845Z,995.78
2019-03-27T12:05:20.874Z,995.77
2019-03-27T12:06:20.829Z,995.82
2019-03-27T12:07:20.915Z,995.76
2019-03-27T12:08:20.786Z,995.73
2019-03-27T12:09:20.766Z,995.72
2019-03-27T12:10:20.766Z,995.71
2019-03-27T12:11:20.826Z,995.74
2019-03-27T12:12:20.735Z,995.71
2019-03-27T12:13:20.818Z,995.77
2019-03-27T12:14:20.740Z,995.73
2019-03-27T12:15:20.719Z,995.78
2019-03-27T12:16:20.780Z,995.72
2019-03-27T12:17:20.703Z,995.75
2019-03-27T12:18:20.761Z,995.76
2019-03-27T12:19:20.670Z,995.76
2019-03-27T12:20:20.661Z,995.82
2019-03-27T12:21:20.852Z,995.77
2019-03-27T12:22:20.642Z,995.70
2019-03-27T12:23:20.622Z,995.71
2019-03-27T12:24:20.615Z,995.69
2019-03-27T12:25:20.603Z,995.72
2019-03-27T12:26:20.815Z,995.67
2019-03-27T12:27:20.568Z,995.66
2019-03-27T12:28:20.645Z,995.64